Time;durP1;ratioP1;P1;durP2;ratioP2;P2;SDS_P1;SDS_P2;PMS_P1;PMS_P2;Temp;Humidity;BMP_temperature;BMP_pressure;BME280_temperature;BME280_humidity;BME280_pressure;Samples;Min_cycle;Max_cycle;Signal;HPM_P1;HPM_P2
2020/12/11 00:00:06;;;;;;;222.95;105.57;;;;;;;-2.12;100.00;97294.91;5071855;28;20044;-74
2020/12/11 00:02:52;;;;;;;206.95;99.25;;;;;;;-2.10;100.00;97295.69;5071132;28;20040;-74
2020/12/11 00:05:18;;;;;;;207.63;101.72;;;;;;;-2.21;100.00;97286.63;5071469;28;20064;-74
2020/12/11 00:07:43;;;;;;;223.13;101.05;;;;;;;-2.30;100.00;97291.22;5070958;28;20090;-73
2020/12/11 00:10:11;;;;;;;214.00;102.25;;;;;;;-2.32;100.00;97298.13;5071804;28;20048;-72
2020/12/11 00:12:38;;;;;;;212.55;101.82;;;;;;;-2.43;100.00;97286.47;5069200;28;20132;-74
2020/12/11 00:15:09;;;;;;;221.52;102.20;;;;;;;-2.44;100.00;97289.09;5071413;28;20036;-74
2020/12/11 00:17:35;;;;;;;220.98;101.05;;;;;;;-2.55;100.00;97274.91;5070990;28;20063;-74
2020/12/11 00:20:04;;;;;;;226.20;103.70;;;;;;;-2.59;100.00;97282.75;5069838;28;20045;-73
2020/12/11 00:22:29;;;;;;;224.07;100.93;;;;;;;-2.62;100.00;97282.84;5071614;28;20048;-73
2020/12/11 00:24:55;;;;;;;237.15;103.60;;;;;;;-2.68;100.00;97291.56;5070657;28;20403;-74
2020/12/11 00:27:21;;;;;;;233.38;108.35;;;;;;;-2.77;100.00;97291.84;5071428;28;20457;-73
2020/12/11 00:29:47;;;;;;;252.90;107.22;;;;;;;-2.84;100.00;97287.78;5069574;28;20047;-74
2020/12/11 00:32:12;;;;;;;248.60;106.40;;;;;;;-2.85;100.00;97297.22;5071368;28;20047;-73
2020/12/11 00:34:39;;;;;;;249.63;107.47;;;;;;;-2.85;100.00;97296.38;5070710;28;20059;-73
2020/12/11 00:37:05;;;;;;;241.82;107.15;;;;;;;-2.89;100.00;97301.63;5071525;28;20461;-73
2020/12/11 00:39:31;;;;;;;245.63;106.07;;;;;;;-2.94;100.00;97293.19;5071565;28;20049;-73
2020/12/11 00:41:57;;;;;;;234.60;106.75;;;;;;;-2.98;100.00;97299.31;5072664;28;20040;-73
2020/12/11 00:44:23;;;;;;;261.00;112.05;;;;;;;-2.89;100.00;97317.00;5090228;28;20055;-74
2020/12/11 00:46:49;;;;;;;246.25;106.40;;;;;;;-2.83;100.00;97325.38;5073413;28;20040;-74
2020/12/11 00:49:15;;;;;;;248.43;111.30;;;;;;;-2.85;100.00;97317.75;5074606;28;20060;-73
2020/12/11 00:51:41;;;;;;;245.63;108.70;;;;;;;-2.84;100.00;97310.88;5074262;28;20051;-73
2020/12/11 00:54:07;;;;;;;223.93;104.07;;;;;;;-2.78;100.00;97324.38;5090392;28;20056;-72
2020/12/11 00:56:32;;;;;;;208.95;97.53;;;;;;;-2.72;100.00;97323.31;5074731;28;20048;-73
2020/12/11 00:58:58;;;;;;;191.77;93.57;;;;;;;-2.68;100.00;97318.97;5074115;28;20041;-73
2020/12/11 01:01:24;;;;;;;201.15;92.32;;;;;;;-2.62;100.00;97329.03;5074485;28;20068;-73
2020/12/11 01:03:50;;;;;;;182.88;86.85;;;;;;;-2.60;100.00;97324.69;5089604;28;20060;-72
2020/12/11 01:06:15;;;;;;;184.18;86.30;;;;;;;-2.61;100.00;97317.88;5073174;28;20162;-73
2020/12/11 01:08:41;;;;;;;176.95;82.80;;;;;;;-2.51;100.00;97321.84;5073731;28;20098;-73
2020/12/11 01:11:07;;;;;;;177.82;83.68;;;;;;;-2.52;100.00;97327.84;5074330;28;20127;-73
2020/12/11 01:13:33;;;;;;;171.60;82.25;;;;;;;-2.45;100.00;97323.38;5074543;28;20044;-73
2020/12/11 01:15:58;;;;;;;181.48;83.90;;;;;;;-2.50;100.00;97318.38;5073577;28;20056;-72
2020/12/11 01:18:25;;;;;;;182.80;80.97;;;;;;;-2.44;100.00;97312.19;5073682;28;20216;-72
2020/12/11 01:20:51;;;;;;;185.85;82.70;;;;;;;-2.42;100.00;97315.56;5073757;28;20056;-73
2020/12/11 01:23:16;;;;;;;187.10;85.25;;;;;;;-2.39;100.00;97307.78;5073921;28;20543;-72
2020/12/11 01:25:42;;;;;;;168.10;80.20;;;;;;;-2.38;100.00;97304.31;5073098;28;20094;-73
2020/12/11 01:28:08;;;;;;;169.35;81.20;;;;;;;-2.34;100.00;97303.31;5074037;28;20102;-73
2020/12/11 01:30:34;;;;;;;193.63;85.45;;;;;;;-2.33;100.00;97310.16;5074136;28;20450;-72
2020/12/11 01:33:00;;;;;;;189.85;86.97;;;;;;;-2.29;100.00;97311.72;5072058;28;20064;-72
2020/12/11 01:35:25;;;;;;;181.40;84.50;;;;;;;-2.32;100.00;97308.41;5074107;28;20137;-74
2020/12/11 01:37:51;;;;;;;180.02;82.25;;;;;;;-2.25;100.00;97300.47;5073473;28;20040;-73
2020/12/11 01:40:17;;;;;;;193.82;86.70;;;;;;;-2.24;100.00;97309.84;5073794;28;20132;-73
2020/12/11 01:42:43;;;;;;;196.30;86.53;;;;;;;-2.27;100.00;97298.81;5073064;28;20203;-74
2020/12/11 01:45:09;;;;;;;205.90;89.15;;;;;;;-2.29;100.00;97283.47;5073450;28;20080;-73
2020/12/11 01:47:41;;;;;;;180.90;83.82;;;;;;;-2.25;100.00;97292.75;5071766;28;20056;-73
2020/12/11 01:50:08;;;;;;;;;;;;;;;-2.24;100.00;97304.72;5074142;28;20044;-73
2020/12/11 01:52:35;;;;;;;169.98;80.15;;;;;;;-2.24;100.00;97304.72;5072761;28;20284;-73
2020/12/11 01:55:01;;;;;;;189.80;85.75;;;;;;;-2.20;100.00;97295.16;5072993;28;20150;-73
2020/12/11 01:57:49;;;;;;;187.35;83.75;;;;;;;-2.17;100.00;97300.19;5073470;28;20106;-73
2020/12/11 02:00:19;;;;;;;186.43;86.38;;;;;;;-2.30;100.00;97286.09;5073262;28;20058;-73
2020/12/11 02:02:46;;;;;;;194.68;89.05;;;;;;;-2.28;100.00;97279.19;5062554;28;20511;-74
2020/12/11 02:05:11;;;;;;;211.30;93.82;;;;;;;-2.24;100.00;97283.31;5072192;28;20066;-74
2020/12/11 02:07:40;;;;;;;199.82;89.57;;;;;;;-2.18;100.00;97294.25;5073221;28;20055;-76
2020/12/11 02:10:09;;;;;;;193.02;87.55;;;;;;;-2.20;100.00;97284.91;5073069;28;20491;-74
2020/12/11 02:12:35;;;;;;;199.75;85.88;;;;;;;-2.28;100.00;97267.19;5073415;28;20076;-74
2020/12/11 02:15:02;;;;;;;194.02;87.40;;;;;;;-2.17;100.00;97284.81;5072519;28;20079;-73
2020/12/11 02:17:28;;;;;;;197.80;86.15;;;;;;;-2.18;100.00;97283.97;5072386;28;20041;-74
2020/12/11 02:19:55;;;;;;;189.20;83.22;;;;;;;-2.22;100.00;97272.13;5071594;28;20036;-74
2020/12/11 02:22:21;;;;;;;200.07;85.80;;;;;;;-2.18;100.00;97277.97;5073233;28;20047;-74
2020/12/11 02:24:46;;;;;;;170.00;77.32;;;;;;;-2.20;100.00;97270.31;5072013;28;20044;-75
2020/12/11 02:27:12;;;;;;;183.20;80.95;;;;;;;-2.18;100.00;97265.13;5071784;28;20048;-74
2020/12/11 02:29:41;;;;;;;195.63;81.13;;;;;;;-2.11;100.00;97271.75;5072408;28;20452;-74
2020/12/11 02:32:07;;;;;;;172.25;78.13;;;;;;;-2.10;100.00;97267.44;5071960;28;20045;-73
2020/12/11 02:34:32;;;;;;;175.80;76.22;;;;;;;-2.03;100.00;97256.09;5072864;28;20402;-73
2020/12/11 02:37:02;;;;;;;175.75;77.00;;;;;;;-2.05;100.00;97257.88;5072229;28;20048;-74
2020/12/11 02:39:29;;;;;;;171.48;76.72;;;;;;;-2.03;100.00;97253.50;5072777;28;20055;-73
2020/12/11 02:41:55;;;;;;;163.32;74.35;;;;;;;-2.00;100.00;97253.41;5072046;28;20124;-74
2020/12/11 02:44:21;;;;;;;162.60;72.85;;;;;;;-2.03;100.00;97245.81;5072179;28;20051;-74
2020/12/11 02:46:46;;;;;;;172.18;76.32;;;;;;;-1.95;100.00;97255.81;5070419;28;20063;-73
2020/12/11 02:49:12;;;;;;;164.30;73.25;;;;;;;-1.99;100.00;97252.53;5072589;28;20135;-74
2020/12/11 02:51:38;;;;;;;167.15;73.43;;;;;;;-1.96;100.00;97247.28;5072472;28;20059;-74
2020/12/11 02:54:04;;;;;;;168.55;75.35;;;;;;;-2.01;100.00;97241.44;5071995;28;20048;-75
2020/12/11 02:56:30;;;;;;;160.05;73.13;;;;;;;-1.97;100.00;97250.72;5072678;28;20037;-74
2020/12/11 02:58:56;;;;;;;166.52;71.80;;;;;;;-1.97;100.00;97253.31;5070737;28;20048;-74
2020/12/11 03:01:25;;;;;;;163.95;70.82;;;;;;;-1.93;100.00;97254.88;5072024;28;20048;-73
2020/12/11 03:03:50;;;;;;;162.63;70.75;;;;;;;-1.90;100.00;97257.34;5087200;28;20114;-74
2020/12/11 03:06:16;;;;;;;159.52;72.05;;;;;;;-1.88;100.00;97259.84;5072193;28;20463;-73
2020/12/11 03:08:42;;;;;;;157.40;71.50;;;;;;;-1.91;100.00;97249.69;5071978;28;20120;-75
2020/12/11 03:11:07;;;;;;;158.27;70.90;;;;;;;-1.92;100.00;97242.88;5071849;28;20070;-74
2020/12/11 03:13:33;;;;;;;166.38;71.50;;;;;;;-1.88;100.00;97255.56;5071358;28;20124;-74
2020/12/11 03:15:59;;;;;;;170.70;76.18;;;;;;;-1.82;100.00;97257.06;5071207;28;20211;-74
2020/12/11 03:18:25;;;;;;;165.85;73.88;;;;;;;-1.81;100.00;97262.16;5072156;28;20067;-74
2020/12/11 03:20:51;;;;;;;168.70;75.15;;;;;;;-1.80;100.00;97263.00;5072025;28;20067;-74
2020/12/11 03:23:16;;;;;;;161.43;72.38;;;;;;;-1.79;100.00;97274.94;5071858;28;20052;-74
2020/12/11 03:25:42;;;;;;;160.70;73.38;;;;;;;-1.78;100.00;97268.06;5071024;28;20044;-74
2020/12/11 03:28:08;;;;;;;168.05;76.13;;;;;;;-1.77;100.00;97262.88;5071654;28;20105;-74
2020/12/11 03:30:34;;;;;;;170.70;76.53;;;;;;;-1.80;100.00;97263.00;5071868;28;20045;-74
2020/12/11 03:32:59;;;;;;;161.25;70.97;;;;;;;-1.74;100.00;97272.22;5071345;28;20048;-74
2020/12/11 03:35:25;;;;;;;161.60;73.30;;;;;;;-1.75;100.00;97276.50;5087595;28;20092;-74
2020/12/11 03:37:51;;;;;;;173.30;74.32;;;;;;;-1.76;100.00;97263.72;5071208;28;20097;-74
2020/12/11 03:40:17;;;;;;;156.43;68.47;;;;;;;-1.72;100.00;97262.72;5072134;28;20109;-74
2020/12/11 03:42:43;;;;;;;142.77;65.68;;;;;;;-1.60;99.71;97266.59;5072095;28;20101;-74
2020/12/11 03:45:08;;;;;;;139.05;66.13;;;;;;;-1.66;99.19;97265.06;5070745;28;20045;-74
2020/12/11 03:47:35;;;;;;;144.40;66.07;;;;;;;-1.66;98.60;97258.19;5070795;28;20059;-74
2020/12/11 03:50:00;;;;;;;150.95;70.22;;;;;;;-1.62;99.05;97267.47;5071308;28;20094;-73
2020/12/11 03:52:28;;;;;;;138.85;66.47;;;;;;;-1.62;98.52;97271.78;5071650;28;20041;-74
2020/12/11 03:54:53;;;;;;;138.10;66.97;;;;;;;-1.63;98.04;97267.53;5071233;28;20136;-74
2020/12/11 03:57:19;;;;;;;147.07;69.25;;;;;;;-1.59;97.97;97274.25;5071843;28;20472;-74
2020/12/11 03:59:45;;;;;;;152.48;70.93;;;;;;;-1.69;98.50;97267.75;5071763;28;20044;-75
2020/12/11 04:02:12;;;;;;;168.02;75.22;;;;;;;-1.72;98.82;97273.81;5071493;28;20048;-74
2020/12/11 04:04:39;;;;;;;168.32;78.72;;;;;;;-1.76;99.80;97274.84;5071483;28;20049;-74
2020/12/11 04:07:05;;;;;;;169.82;80.13;;;;;;;-1.82;99.73;97268.19;5071017;28;20064;-75
2020/12/11 04:09:31;;;;;;;170.30;79.50;;;;;;;-1.71;100.00;97272.13;5070512;28;20450;-73
2020/12/11 04:11:57;;;;;;;192.32;86.47;;;;;;;-1.58;99.27;97281.03;5070460;28;20052;-75
2020/12/11 04:14:23;;;;;;;207.65;92.25;;;;;;;-1.76;100.00;97274.00;5070292;28;20090;-74
2020/12/11 04:16:49;;;;;;;187.82;87.18;;;;;;;-1.75;100.00;97280.81;5073014;28;20060;-76
2020/12/11 04:19:15;;;;;;;215.55;93.20;;;;;;;-1.86;100.00;97265.78;5075496;28;20056;-74
2020/12/11 04:21:50;;;;;;;222.77;94.60;;;;;;;-1.81;100.00;97277.56;5075422;28;20143;-74
2020/12/11 04:24:17;;;;;;;226.77;98.32;;;;;;;-1.84;100.00;97263.97;5091120;28;20398;-73
2020/12/11 04:26:42;;;;;;;235.27;98.93;;;;;;;-1.83;100.00;97276.78;5075500;28;20075;-73
2020/12/11 04:29:08;;;;;;;205.43;92.38;;;;;;;-1.82;100.00;97275.06;5074748;28;20064;-73
2020/12/11 04:31:35;;;;;;;227.75;96.88;;;;;;;-1.85;100.00;97276.00;5075255;28;20052;-73
2020/12/11 04:34:01;;;;;;;216.73;94.40;;;;;;;-1.82;100.00;97278.47;5074606;28;20138;-73
2020/12/11 04:36:26;;;;;;;211.70;91.72;;;;;;;-1.76;100.00;97279.97;5073929;28;20480;-73
2020/12/11 04:38:52;;;;;;;222.95;92.85;;;;;;;-1.78;100.00;97270.63;5073682;28;20049;-74
2020/12/11 04:41:20;;;;;;;229.90;97.90;;;;;;;-1.78;100.00;97273.22;5074941;28;20403;-72
2020/12/11 04:43:50;;;;;;;234.07;96.57;;;;;;;-1.81;100.00;97272.44;5074580;28;20105;-73
2020/12/11 04:46:16;;;;;;;230.40;97.78;;;;;;;-1.77;100.00;97272.34;5072567;28;20056;-73
2020/12/11 04:48:43;;;;;;;241.02;100.07;;;;;;;-1.76;100.00;97269.72;5075211;28;20404;-73
2020/12/11 04:51:09;;;;;;;233.95;97.10;;;;;;;-1.81;100.00;97262.16;5074400;28;20517;-69
2020/12/11 04:53:55;;;;;;;223.50;96.63;;;;;;;-1.77;100.00;97262.88;5074868;28;20489;-73
2020/12/11 04:56:22;;;;;;;227.95;98.80;;;;;;;-1.68;100.00;97269.44;5074888;28;20056;-73
2020/12/11 04:58:51;;;;;;;219.13;95.50;;;;;;;-1.66;100.00;97265.06;5073791;28;20053;-73
2020/12/11 05:01:33;;;;;;;237.68;99.40;;;;;;;-1.67;100.00;97258.25;5074623;28;20071;-73
2020/12/11 05:04:01;;;;;;;237.43;99.63;;;;;;;-1.63;100.00;97263.22;5074512;28;20165;-73
2020/12/11 05:06:27;;;;;;;236.23;98.35;;;;;;;-1.65;100.00;97269.31;5073729;28;20447;-73
2020/12/11 05:09:12;;;;;;;242.30;102.75;;;;;;;-1.63;100.00;97254.69;5074125;28;20060;-72
2020/12/11 05:11:40;;;;;;;216.43;94.78;;;;;;;-1.66;100.00;97263.31;5089932;28;20479;-71
2020/12/11 05:14:18;;;;;;;238.43;100.57;;;;;;;-1.66;100.00;97265.06;5073701;28;20048;-73
2020/12/11 05:17:04;;;;;;;211.80;92.18;;;;;;;-1.68;100.00;97265.13;5074325;28;20055;-72
2020/12/11 05:19:33;;;;;;;209.95;90.95;;;;;;;-1.68;100.00;97265.13;5073767;28;20049;-72
2020/12/11 05:22:12;;;;;;;199.68;86.80;;;;;;;-1.63;100.00;97275.25;5073570;28;20071;-71
2020/12/11 05:24:42;;;;;;;197.73;84.47;;;;;;;-1.72;100.00;97273.00;5074196;28;20044;-72
2020/12/11 05:27:44;;;;;;;212.27;90.18;;;;;;;-1.95;100.00;97278.94;5073658;28;20090;-72
2020/12/11 05:30:10;;;;;;;199.95;84.68;;;;;;;-2.03;100.00;97276.63;5031014;28;20054;-73
2020/12/11 05:32:38;;;;;;;209.25;88.03;;;;;;;-1.92;100.00;97284.78;5065669;28;20064;-72
2020/12/11 05:35:22;;;;;;;221.80;91.38;;;;;;;-2.00;100.00;97291.94;5073380;28;20060;-72
2020/12/11 05:38:05;;;;;;;214.68;87.13;;;;;;;-2.17;100.00;97305.34;5074274;28;20048;-73
2020/12/11 05:40:34;;;;;;;214.95;87.45;;;;;;;-2.32;100.00;97296.41;5074249;28;20045;-73
2020/12/11 05:43:21;;;;;;;236.57;95.32;;;;;;;-2.24;100.00;97309.00;5073176;28;20055;-72
2020/12/11 05:45:54;;;;;;;231.00;94.43;;;;;;;-2.34;100.00;97308.47;5062491;28;20071;-74
2020/12/11 05:48:23;;;;;;;224.57;88.82;;;;;;;-2.28;100.00;97304.88;5058095;28;20052;-73
2020/12/11 05:50:49;;;;;;;224.15;91.20;;;;;;;-2.34;100.00;97305.91;5051391;28;20044;-72
2020/12/11 05:53:15;;;;;;;224.55;93.93;;;;;;;-2.27;100.00;97309.94;5067915;28;20052;-74
2020/12/11 05:55:43;;;;;;;215.07;91.68;;;;;;;-2.22;100.00;97305.50;5071255;28;20080;-73
2020/12/11 05:58:11;;;;;;;214.63;90.63;;;;;;;-2.27;100.00;97306.53;5071979;28;20051;-73
2020/12/11 06:00:40;;;;;;;243.20;95.88;;;;;;;-2.34;100.00;97308.47;5072154;28;20044;-71
2020/12/11 06:03:07;;;;;;;219.63;93.28;;;;;;;-2.37;100.00;97306.00;5065772;28;20040;-72
2020/12/11 06:05:38;;;;;;;231.18;96.15;;;;;;;-2.41;100.00;97307.81;5073320;28;20041;-72
2020/12/11 06:08:09;;;;;;;228.38;95.68;;;;;;;-2.52;100.00;97295.34;5071529;28;20044;-72
2020/12/11 06:10:38;;;;;;;237.68;100.45;;;;;;;-2.52;100.00;97315.88;5072192;28;20067;-72
2020/12/11 06:13:04;;;;;;;259.52;103.90;;;;;;;-2.51;100.00;97314.13;5068962;28;20131;-75
2020/12/11 06:15:54;;;;;;;268.58;109.03;;;;;;;-2.55;100.00;97317.66;5072376;28;20151;-79
2020/12/11 06:18:28;;;;;;;285.15;115.55;;;;;;;-2.64;100.00;97305.13;5072893;28;20383;-75
2020/12/11 06:20:55;;;;;;;294.98;116.30;;;;;;;-2.61;100.00;97302.47;5087477;28;20041;-78
2020/12/11 06:23:26;;;;;;;278.73;113.28;;;;;;;-2.64;100.00;97303.44;5072556;28;20059;-76
2020/12/11 06:26:01;;;;;;;297.65;116.45;;;;;;;-2.68;100.00;97299.25;5072407;28;20479;-76
2020/12/11 06:28:41;;;;;;;286.40;111.75;;;;;;;-2.75;100.00;97282.38;5072419;28;20060;-76
2020/12/11 06:31:12;;;;;;;272.48;112.50;;;;;;;-2.82;100.00;97291.16;5068519;28;20044;-83
2020/12/11 06:33:40;;;;;;;277.90;111.93;;;;;;;-2.95;100.00;97283.00;5069738;28;20079;-78
2020/12/11 06:36:07;;;;;;;273.52;105.95;;;;;;;-2.98;100.00;97291.63;5071424;28;20159;-73
2020/12/11 06:38:39;;;;;;;274.25;107.53;;;;;;;-3.08;100.00;97292.78;5071740;28;20040;-75
2020/12/11 06:41:05;;;;;;;308.92;118.85;;;;;;;-3.15;100.00;97284.44;5071002;28;20139;-75
2020/12/11 06:43:45;;;;;;;345.77;132.27;;;;;;;-3.10;100.00;97302.25;5072599;28;20128;-75
2020/12/11 06:46:21;;;;;;;401.95;155.93;;;;;;;-3.08;100.00;97295.34;5064712;28;20045;-74
2020/12/11 06:49:08;;;;;;;366.33;145.60;;;;;;;-3.08;100.00;97296.19;5052409;28;20446;-74
2020/12/11 06:51:55;;;;;;;326.80;130.80;;;;;;;-3.08;100.00;97295.34;5052098;28;20135;-74
2020/12/11 06:54:20;;;;;;;338.02;131.23;;;;;;;-3.15;100.00;97291.28;5050046;28;20068;-73
2020/12/11 06:56:55;;;;;;;336.05;123.85;;;;;;;-3.19;100.00;97285.41;5052739;28;20369;-74
2020/12/11 06:59:26;;;;;;;326.70;116.22;;;;;;;-3.13;100.00;97290.34;5052728;28;20049;-72
2020/12/11 07:01:56;;;;;;;306.88;110.53;;;;;;;-2.98;100.00;97296.75;5065934;28;20045;-72
2020/12/11 07:04:23;;;;;;;288.95;105.03;;;;;;;-3.03;100.00;97300.34;5056795;28;20045;-76
2020/12/11 07:06:53;;;;;;;288.00;102.25;;;;;;;-2.98;100.00;97301.03;5065190;28;20052;-75
2020/12/11 07:09:20;;;;;;;265.55;96.97;;;;;;;-2.93;100.00;97288.94;5087019;28;20233;-76
2020/12/11 07:11:47;;;;;;;264.55;100.40;;;;;;;-2.96;100.00;97294.16;5071827;28;20070;-73
2020/12/11 07:14:14;;;;;;;262.00;94.18;;;;;;;-2.92;100.00;97295.72;5069889;28;20124;-73
2020/12/11 07:16:41;;;;;;;263.75;96.05;;;;;;;-2.92;100.00;97305.97;5071821;28;20049;-73
2020/12/11 07:19:08;;;;;;;260.05;94.93;;;;;;;-3.02;100.00;97305.41;5071336;28;20052;-73
2020/12/11 07:21:34;;;;;;;257.67;93.40;;;;;;;-2.97;100.00;97302.72;5054623;28;20045;-72
2020/12/11 07:24:01;;;;;;;267.27;95.03;;;;;;;-2.82;100.00;97301.44;5056287;28;20781;-75
2020/12/11 07:26:28;;;;;;;240.35;89.80;;;;;;;-2.86;100.00;97294.69;5053564;28;20051;-71
2020/12/11 07:29:06;;;;;;;244.07;92.53;;;;;;;-2.83;100.00;97295.44;5072271;28;20391;-72
2020/12/11 07:31:40;;;;;;;247.77;93.25;;;;;;;-2.81;100.00;97305.66;5072454;28;20036;-74
2020/12/11 07:34:17;;;;;;;243.18;91.80;;;;;;;-2.81;100.00;97297.97;5069926;28;20483;-72
2020/12/11 07:37:01;;;;;;;232.95;90.60;;;;;;;-2.73;100.00;97298.59;5069665;28;20040;-70
2020/12/11 07:39:30;;;;;;;243.70;91.10;;;;;;;-2.80;100.00;97285.09;5050308;28;20052;-72
2020/12/11 07:42:03;;;;;;;231.18;92.25;;;;;;;-2.66;100.00;97294.09;5050042;28;20053;-72
2020/12/11 07:44:31;;;;;;;236.60;94.45;;;;;;;-2.71;100.00;97277.09;5051179;28;20041;-73
2020/12/11 07:46:59;;;;;;;228.80;93.65;;;;;;;-2.64;100.00;97293.16;5051334;28;20045;-74
2020/12/11 07:49:45;;;;;;;227.52;90.57;;;;;;;-2.50;100.00;97299.56;5051424;28;20080;-73
2020/12/11 07:52:23;;;;;;;219.43;88.50;;;;;;;-2.47;100.00;97292.63;5074691;28;20044;-71
2020/12/11 07:54:49;;;;;;;210.27;86.07;;;;;;;-2.27;100.00;97283.41;5064281;28;20502;-73
2020/12/11 07:57:20;;;;;;;194.00;82.82;;;;;;;-2.08;100.00;97288.78;5070059;28;20049;-77
2020/12/11 08:00:07;;;;;;;179.57;79.70;;;;;;;-1.91;100.00;97283.09;5074928;28;20049;-72
2020/12/11 08:02:35;;;;;;;183.85;79.65;;;;;;;-1.72;100.00;97288.41;5075230;28;20476;-74
2020/12/11 08:05:06;;;;;;;192.93;83.15;;;;;;;-1.64;100.00;97289.84;5073866;28;20098;-77
2020/12/11 08:07:32;;;;;;;177.77;82.30;;;;;;;-1.55;100.00;97287.81;5075537;28;20040;-76
2020/12/11 08:10:16;;;;;;;189.80;86.10;;;;;;;-1.46;100.00;97296.03;5074737;28;20131;-73
2020/12/11 08:12:43;;;;;;;188.05;84.82;;;;;;;-1.39;100.00;97293.22;5056828;28;20046;-71
2020/12/11 08:15:11;;;;;;;191.82;83.72;;;;;;;-1.49;100.00;97280.72;5054800;28;20048;-75
2020/12/11 08:17:37;;;;;;;197.30;84.40;;;;;;;-1.42;100.00;97291.63;5055252;28;20048;-73
2020/12/11 08:20:06;;;;;;;193.82;89.80;;;;;;;-1.30;100.00;97310.91;5053839;28;20098;-76
2020/12/11 08:22:39;;;;;;;223.25;98.75;;;;;;;-1.37;100.00;97306.88;5054754;28;20182;-74
2020/12/11 08:25:19;;;;;;;217.90;100.78;;;;;;;-1.38;100.00;97300.06;5073678;28;20055;-76
2020/12/11 08:27:45;;;;;;;251.88;106.13;;;;;;;-1.30;100.00;97301.47;5073350;28;20052;-74
2020/12/11 08:30:15;;;;;;;265.20;115.03;;;;;;;-1.30;99.93;97293.75;5054145;28;20530;-73
2020/12/11 08:32:43;;;;;;;281.05;123.28;;;;;;;-1.20;98.73;97294.25;5054494;28;20049;-75
2020/12/11 08:35:19;;;;;;;295.40;128.00;;;;;;;-1.24;97.62;97297.81;5052931;28;20047;-74
2020/12/11 08:37:58;;;;;;;295.75;128.07;;;;;;;-1.15;96.07;97287.19;5060130;28;20139;-74
2020/12/11 08:40:26;;;;;;;270.02;123.38;;;;;;;-1.17;96.30;97301.00;5073394;28;20298;-79
2020/12/11 08:45:48;;;;;;;256.10;113.47;;;;;;;-1.16;94.93;97297.53;5065464;28;20789;-73
2020/12/11 08:50:46;;;;;;;249.50;110.63;;;;;;;-1.12;95.45;97302.50;5053228;28;20045;-73
2020/12/11 08:53:14;;;;;;;227.40;106.38;;;;;;;-1.09;95.09;97307.53;5053005;28;20057;-72
2020/12/11 08:55:39;;;;;;;224.38;102.97;;;;;;;-0.99;95.12;97294.31;5053492;28;20048;-76
2020/12/11 08:58:07;;;;;;;220.07;99.15;;;;;;;-0.76;93.18;97302.03;5058782;28;20037;-75
2020/12/11 09:00:34;;;;;;;220.48;99.63;;;;;;;-0.78;93.83;97290.94;5072129;28;20044;-72
2020/12/11 09:03:00;;;;;;;204.20;95.25;;;;;;;-0.80;93.31;97294.47;5071883;28;20044;-73
2020/12/11 09:05:27;;;;;;;217.95;101.53;;;;;;;-0.64;93.10;97281.84;5088065;28;20067;-74
2020/12/11 09:07:52;;;;;;;193.73;86.68;;;;;;;-0.42;91.19;97290.41;5072833;28;20044;-74
2020/12/11 09:10:19;;;;;;;198.02;90.75;;;;;;;-0.32;90.03;97282.28;5073069;28;20086;-74
2020/12/11 09:12:50;;;;;;;180.35;86.82;;;;;;;-0.37;89.65;97279.91;5072066;28;20054;-73
2020/12/11 09:15:17;;;;;;;157.85;78.28;;;;;;;-0.35;89.08;97295.28;5071837;28;20495;-73
2020/12/11 09:17:42;;;;;;;152.23;75.03;;;;;;;-0.12;87.56;97292.59;5073298;28;20487;-76
2020/12/11 09:20:09;;;;;;;156.68;79.85;;;;;;;-0.07;88.75;97272.63;5071329;28;20056;-76
2020/12/11 09:22:35;;;;;;;152.73;76.07;;;;;;;0.13;88.59;97270.97;5073163;28;20403;-72
2020/12/11 09:25:01;;;;;;;138.77;68.82;;;;;;;0.40;84.83;97271.50;5072879;28;20340;-73
2020/12/11 09:27:27;;;;;;;124.95;63.17;;;;;;;0.64;82.94;97271.34;5071846;28;20323;-75
2020/12/11 09:29:58;;;;;;;130.30;67.65;;;;;;;0.80;83.46;97269.72;5072341;28;20506;-73
2020/12/11 09:32:35;;;;;;;122.13;62.50;;;;;;;1.18;81.26;97258.53;5087735;28;20037;-74
2020/12/11 09:35:01;;;;;;;119.38;63.80;;;;;;;1.46;78.92;97260.63;5071623;28;20402;-73
2020/12/11 09:37:27;;;;;;;127.72;65.38;;;;;;;1.39;79.53;97252.38;5058352;28;20128;-74
2020/12/11 09:39:53;;;;;;;132.00;66.47;;;;;;;1.43;79.60;97245.28;5071395;28;20048;-74
2020/12/11 09:44:57;;;;;;;118.53;63.35;;;;;;;1.86;77.78;97238.00;5072618;28;20447;-74
2020/12/11 09:55:10;;;;;;;123.75;62.63;;;;;;;2.26;76.97;97242.91;5053228;28;20045;-74
2020/12/11 09:57:36;;;;;;;125.05;61.25;;;;;;;2.28;77.73;97228.97;5053658;28;20049;-80
2020/12/11 10:00:05;;;;;;;125.63;62.85;;;;;;;1.97;77.99;97229.72;5052436;28;20045;-78
2020/12/11 10:05:30;;;;;;;121.28;64.00;;;;;;;2.12;77.66;97226.34;5040156;28;20041;-75
2020/12/11 10:07:56;;;;;;;117.57;60.20;;;;;;;2.04;78.53;97228.50;5064229;28;20052;-75
2020/12/11 10:10:23;;;;;;;120.90;63.80;;;;;;;2.10;78.35;97238.53;5071893;28;20459;-77
2020/12/11 10:12:50;;;;;;;123.38;62.05;;;;;;;2.03;79.34;97223.41;5061651;28;20049;-76
2020/12/11 10:15:19;;;;;;;128.95;64.80;;;;;;;2.12;79.00;97220.34;5062867;28;20060;-75
2020/12/11 10:17:45;;;;;;;137.38;66.97;;;;;;;2.23;79.11;97215.47;5087799;28;20059;-73
2020/12/11 10:20:18;;;;;;;131.23;67.20;;;;;;;2.89;77.74;97220.63;5070577;28;20135;-73
2020/12/11 10:22:45;;;;;;;116.18;60.92;;;;;;;2.68;76.00;97218.28;5087549;28;20440;-76
2020/12/11 10:25:11;;;;;;;124.63;64.35;;;;;;;3.06;78.22;97217.97;5071667;28;20052;-76
2020/12/11 10:27:37;;;;;;;116.85;60.22;;;;;;;3.18;74.68;97212.09;5071610;28;20044;-75
2020/12/11 10:30:04;;;;;;;115.63;56.60;;;;;;;3.02;74.94;97199.16;5069921;28;20055;-76
2020/12/11 10:32:30;;;;;;;111.40;56.45;;;;;;;3.28;74.94;97204.63;5067171;28;20642;-75
2020/12/11 10:34:56;;;;;;;107.28;56.08;;;;;;;3.30;74.06;97200.19;5087406;28;20044;-78
2020/12/11 10:37:21;;;;;;;106.43;55.13;;;;;;;3.51;74.93;97205.94;5087124;28;20032;-78
2020/12/11 10:39:47;;;;;;;100.63;53.65;;;;;;;4.06;73.27;97195.84;5072067;28;20044;-73
2020/12/11 10:42:13;;;;;;;101.38;53.80;;;;;;;4.39;70.97;97199.94;5069787;28;20040;-75
2020/12/11 10:44:39;;;;;;;98.28;53.38;;;;;;;4.64;69.24;97194.06;5075831;28;20041;-75
2020/12/11 10:47:05;;;;;;;90.82;48.67;;;;;;;5.10;68.68;97190.34;5086228;28;20052;-75
2020/12/11 10:49:31;;;;;;;81.50;46.30;;;;;;;5.49;67.37;97184.31;5076944;28;20529;-73
2020/12/11 10:51:57;;;;;;;73.43;42.60;;;;;;;6.04;64.52;97174.66;5073710;28;20040;-73
2020/12/11 10:54:26;;;;;;;78.35;43.58;;;;;;;6.36;62.83;97184.59;5082040;28;20503;-73
2020/12/11 10:56:54;;;;;;;73.35;41.20;;;;;;;6.60;63.84;97174.28;5071064;28;20051;-76
2020/12/11 10:59:19;;;;;;;73.63;41.92;;;;;;;6.98;60.81;97175.09;5070065;28;20048;-73
2020/12/11 11:01:45;;;;;;;75.70;41.08;;;;;;;6.89;61.23;97166.19;5070657;28;20052;-75
2020/12/11 11:04:11;;;;;;;67.82;39.40;;;;;;;7.15;61.35;97151.28;5074636;28;20460;-75
2020/12/11 11:06:43;;;;;;;77.25;42.25;;;;;;;7.66;60.22;97144.94;5071645;28;20045;-76
2020/12/11 11:11:58;;;;;;;72.57;40.67;;;;;;;7.49;59.94;97146.19;5070569;28;20749;-74
2020/12/11 11:17:28;;;;;;;67.78;37.05;;;;;;;8.20;57.01;97156.50;5069684;28;20063;-75
2020/12/11 11:22:54;;;;;;;66.15;38.42;;;;;;;8.44;57.52;97142.53;5068720;28;20048;-74
2020/12/11 11:28:18;;;;;;;60.65;35.28;;;;;;;7.12;59.12;97135.00;5046763;28;20056;-76
2020/12/11 11:30:43;;;;;;;60.70;36.40;;;;;;;7.37;58.10;97128.84;5071545;28;20040;-78
2020/12/11 11:33:09;;;;;;;64.70;37.05;;;;;;;7.89;57.53;97122.31;5072257;28;20040;-78
2020/12/11 11:35:37;;;;;;;71.13;38.55;;;;;;;8.10;58.63;97123.41;5071912;28;20506;-75
2020/12/11 11:38:06;;;;;;;63.10;38.30;;;;;;;8.29;57.11;97117.56;5072192;28;20044;-76
2020/12/11 11:40:31;;;;;;;59.05;33.33;;;;;;;8.61;54.40;97115.06;5070832;28;20812;-75